createdAt,value
2017-08-19T00:00:05.804Z,0
2017-08-19T00:00:38.067Z,0
2017-08-19T00:01:10.332Z,0
2017-08-19T00:01:42.623Z,0
2017-08-19T00:02:14.892Z,0
2017-08-19T00:02:47.171Z,0
2017-08-19T00:03:19.456Z,0
2017-08-19T00:03:51.743Z,0
2017-08-19T00:04:24.034Z,0
2017-08-19T00:04:56.315Z,0
2017-08-19T00:05:28.605Z,0
2017-08-19T00:06:00.893Z,0
2017-08-19T00:06:33.192Z,0
2017-08-19T00:07:05.507Z,0
2017-08-19T00:07:37.790Z,0
2017-08-19T00:08:10.080Z,0
2017-08-19T00:08:42.347Z,0
2017-08-19T00:09:14.636Z,0
2017-08-19T00:09:46.900Z,0
2017-08-19T00:10:19.172Z,0
2017-08-19T00:10:51.462Z,0
2017-08-19T00:11:23.749Z,0
2017-08-19T00:11:56.037Z,0
2017-08-19T00:12:28.322Z,0
2017-08-19T00:13:00.578Z,0
2017-08-19T00:13:32.838Z,0
2017-08-19T00:14:05.116Z,0
2017-08-19T00:14:37.381Z,0
2017-08-19T00:15:09.634Z,0
2017-08-19T00:15:41.918Z,0
2017-08-19T00:16:14.193Z,0
2017-08-19T00:16:46.468Z,0
2017-08-19T00:17:18.725Z,0
2017-08-19T00:17:51.124Z,0
2017-08-19T00:18:23.375Z,0
2017-08-19T00:18:55.669Z,0
2017-08-19T00:19:27.900Z,0
2017-08-19T00:20:00.159Z,0
2017-08-19T00:20:32.433Z,0
2017-08-19T00:21:04.715Z,0
2017-08-19T00:21:36.989Z,0
2017-08-19T00:22:09.281Z,0
2017-08-19T00:22:41.526Z,0
2017-08-19T00:23:13.816Z,0
2017-08-19T00:23:46.107Z,0
2017-08-19T00:24:18.418Z,0
2017-08-19T00:24:50.715Z,0
2017-08-19T00:25:23.007Z,0
2017-08-19T00:25:55.290Z,0
2017-08-19T00:26:27.566Z,0
2017-08-19T00:26:59.862Z,0
2017-08-19T00:27:32.146Z,0
2017-08-19T00:28:04.463Z,0
2017-08-19T00:28:36.740Z,0
2017-08-19T00:29:09.030Z,0
2017-08-19T00:29:41.310Z,0
2017-08-19T00:30:13.576Z,0
2017-08-19T00:30:45.870Z,0
2017-08-19T00:31:18.154Z,0
2017-08-19T00:31:50.425Z,0
2017-08-19T00:32:22.724Z,0
2017-08-19T00:32:54.990Z,0
2017-08-19T00:33:27.285Z,0
2017-08-19T00:33:59.543Z,0
2017-08-19T00:34:31.813Z,0
2017-08-19T00:35:04.094Z,0
2017-08-19T00:35:36.351Z,0
2017-08-19T00:36:08.616Z,0
2017-08-19T00:36:40.859Z,0
2017-08-19T00:37:13.104Z,0
2017-08-19T00:37:45.350Z,0
2017-08-19T00:38:17.600Z,0
2017-08-19T00:38:49.854Z,0
2017-08-19T00:39:22.120Z,0
2017-08-19T00:39:54.402Z,0
2017-08-19T00:40:26.680Z,0
2017-08-19T00:40:59.004Z,0
2017-08-19T00:41:31.263Z,0
2017-08-19T00:42:03.526Z,0
2017-08-19T00:42:35.789Z,0
2017-08-19T00:43:08.080Z,0
2017-08-19T00:43:40.363Z,0
2017-08-19T00:44:12.653Z,0
2017-08-19T00:44:44.928Z,0
2017-08-19T00:45:17.240Z,0
2017-08-19T00:45:49.506Z,0
2017-08-19T00:46:21.788Z,0
2017-08-19T00:46:54.102Z,0
2017-08-19T00:47:26.393Z,0
2017-08-19T00:47:58.680Z,0
2017-08-19T00:48:30.957Z,0
2017-08-19T00:49:03.254Z,0
2017-08-19T00:49:35.553Z,0
2017-08-19T00:50:07.826Z,0
2017-08-19T00:50:40.119Z,0
2017-08-19T00:51:12.425Z,0
2017-08-19T00:51:44.714Z,0
2017-08-19T00:52:17.019Z,0
2017-08-19T00:52:49.333Z,0
2017-08-19T00:53:21.608Z,0
2017-08-19T00:53:53.903Z,0
2017-08-19T00:54:26.198Z,0
2017-08-19T00:54:58.493Z,0
2017-08-19T00:55:30.775Z,0
2017-08-19T00:56:03.060Z,0
2017-08-19T00:56:35.330Z,0
2017-08-19T00:57:07.617Z,0
2017-08-19T00:57:39.904Z,0
2017-08-19T00:58:12.181Z,0
2017-08-19T00:58:44.481Z,0
2017-08-19T00:59:16.753Z,0
2017-08-19T00:59:49.048Z,0
2017-08-19T01:00:21.334Z,0
2017-08-19T01:00:53.630Z,0
2017-08-19T01:01:25.918Z,0
2017-08-19T01:01:58.199Z,0
2017-08-19T01:02:30.482Z,0
2017-08-19T01:03:02.802Z,0
2017-08-19T01:03:35.956Z,0
2017-08-19T01:04:08.357Z,0
2017-08-19T01:04:40.621Z,0
2017-08-19T01:05:12.874Z,0
2017-08-19T01:05:45.146Z,0
2017-08-19T01:06:17.384Z,0
2017-08-19T01:06:49.740Z,0
2017-08-19T01:07:21.999Z,0
2017-08-19T01:07:54.269Z,0
2017-08-19T01:08:26.561Z,0
2017-08-19T01:08:58.850Z,0
2017-08-19T01:09:31.093Z,0
2017-08-19T01:10:03.397Z,0
2017-08-19T01:10:35.642Z,0
2017-08-19T01:11:07.902Z,0
2017-08-19T01:11:40.152Z,0
2017-08-19T01:12:12.437Z,0
2017-08-19T01:12:44.702Z,0
2017-08-19T01:13:16.972Z,0
2017-08-19T01:13:49.238Z,0
2017-08-19T01:14:21.495Z,0
2017-08-19T01:14:53.781Z,0
2017-08-19T01:15:26.166Z,0
2017-08-19T01:15:58.423Z,0
2017-08-19T01:16:30.693Z,0
2017-08-19T01:17:02.945Z,0
2017-08-19T01:17:35.209Z,0
2017-08-19T01:18:08.396Z,0
2017-08-19T01:18:40.678Z,0
2017-08-19T01:19:12.940Z,0
2017-08-19T01:19:45.184Z,0
2017-08-19T01:20:17.441Z,0
2017-08-19T01:20:49.674Z,0
2017-08-19T01:21:21.932Z,0
2017-08-19T01:21:54.216Z,0
2017-08-19T01:22:26.530Z,0
2017-08-19T01:22:58.814Z,0
2017-08-19T01:23:31.103Z,0
2017-08-19T01:24:03.405Z,0
2017-08-19T01:24:35.701Z,0
2017-08-19T01:25:07.999Z,0
2017-08-19T01:25:40.277Z,0
2017-08-19T01:26:12.556Z,0
2017-08-19T01:26:44.875Z,0
2017-08-19T01:27:17.180Z,0
2017-08-19T01:27:49.484Z,0
2017-08-19T01:28:21.758Z,0
2017-08-19T01:28:54.034Z,0
2017-08-19T01:29:26.326Z,0
2017-08-19T01:29:58.604Z,0
2017-08-19T01:30:30.890Z,0
2017-08-19T01:31:03.178Z,0
2017-08-19T01:31:35.494Z,0
2017-08-19T01:32:07.775Z,0
2017-08-19T01:32:40.053Z,0
2017-08-19T01:33:12.330Z,0
2017-08-19T01:33:44.597Z,0
2017-08-19T01:34:16.841Z,0
2017-08-19T01:34:49.136Z,0
2017-08-19T01:35:21.398Z,0
2017-08-19T01:35:53.733Z,0
2017-08-19T01:36:25.979Z,0
2017-08-19T01:36:58.268Z,0
2017-08-19T01:37:30.524Z,0
2017-08-19T01:38:02.761Z,0
2017-08-19T01:38:35.011Z,0
2017-08-19T01:39:07.275Z,0
2017-08-19T01:39:39.526Z,0
2017-08-19T01:40:11.768Z,0
2017-08-19T01:40:43.996Z,0
2017-08-19T01:41:16.285Z,0
2017-08-19T01:41:48.545Z,0
2017-08-19T01:42:20.811Z,0
2017-08-19T01:42:53.074Z,0
2017-08-19T01:43:25.350Z,0
2017-08-19T01:43:57.630Z,0
2017-08-19T01:44:29.881Z,0
2017-08-19T01:45:02.137Z,0
2017-08-19T01:45:34.396Z,0
2017-08-19T01:46:06.651Z,0
2017-08-19T01:46:38.921Z,0
2017-08-19T01:47:11.181Z,0
2017-08-19T01:47:43.453Z,0
2017-08-19T01:48:15.778Z,0
2017-08-19T01:48:48.057Z,0
2017-08-19T01:49:20.328Z,0
2017-08-19T01:49:52.606Z,0
2017-08-19T01:50:24.958Z,0
2017-08-19T01:50:57.260Z,0
2017-08-19T01:51:29.546Z,0
2017-08-19T01:52:01.795Z,0
2017-08-19T01:52:34.073Z,0
2017-08-19T01:53:06.346Z,0
2017-08-19T01:53:38.598Z,0
2017-08-19T01:54:10.860Z,0
2017-08-19T01:54:43.125Z,0
2017-08-19T01:55:15.383Z,0
2017-08-19T01:55:47.631Z,0
2017-08-19T01:56:19.914Z,0
2017-08-19T01:56:52.194Z,0
2017-08-19T01:57:24.440Z,0
2017-08-19T01:57:56.712Z,0
2017-08-19T01:58:28.964Z,0
2017-08-19T01:59:01.243Z,0
2017-08-19T01:59:33.488Z,0
2017-08-19T02:00:06.428Z,0
2017-08-19T02:00:38.701Z,0
2017-08-19T02:01:11.020Z,0
2017-08-19T02:01:43.303Z,0
2017-08-19T02:02:15.575Z,0
2017-08-19T02:02:47.832Z,0
2017-08-19T02:03:20.109Z,0
2017-08-19T02:03:52.375Z,0
2017-08-19T02:04:24.646Z,0
2017-08-19T02:04:56.932Z,0
2017-08-19T02:05:29.202Z,0
2017-08-19T02:06:01.508Z,0
2017-08-19T02:06:33.799Z,0
2017-08-19T02:07:06.083Z,0
2017-08-19T02:07:38.367Z,0
2017-08-19T02:08:10.645Z,0
2017-08-19T02:08:42.925Z,0
2017-08-19T02:09:15.238Z,0
2017-08-19T02:09:47.521Z,0
2017-08-19T02:10:19.814Z,0
2017-08-19T02:10:52.119Z,0
2017-08-19T02:11:24.408Z,0
2017-08-19T02:11:56.724Z,0
2017-08-19T02:12:29.010Z,0
2017-08-19T02:13:01.302Z,0
2017-08-19T02:13:33.552Z,0
2017-08-19T02:14:05.816Z,0
2017-08-19T02:14:38.885Z,0
2017-08-19T02:15:11.292Z,0
2017-08-19T02:15:43.615Z,0
2017-08-19T02:16:15.877Z,0
2017-08-19T02:16:48.134Z,0
2017-08-19T02:17:20.463Z,0
2017-08-19T02:17:52.724Z,0
2017-08-19T02:18:24.972Z,0
2017-08-19T02:18:57.255Z,0
2017-08-19T02:19:29.534Z,0
2017-08-19T02:20:01.804Z,0
2017-08-19T02:20:34.061Z,0
2017-08-19T02:21:06.314Z,0
2017-08-19T02:21:38.595Z,0
2017-08-19T02:22:10.883Z,0
2017-08-19T02:22:43.132Z,0
2017-08-19T02:23:15.395Z,0
2017-08-19T02:23:47.795Z,0
2017-08-19T02:24:20.039Z,0
2017-08-19T02:24:52.301Z,0
2017-08-19T02:25:24.562Z,0
2017-08-19T02:25:56.815Z,0
2017-08-19T02:26:29.069Z,0
2017-08-19T02:27:01.317Z,0
2017-08-19T02:27:33.612Z,0
2017-08-19T02:28:05.917Z,0
2017-08-19T02:28:38.196Z,0
2017-08-19T02:29:10.468Z,0
2017-08-19T02:29:42.759Z,0
2017-08-19T02:30:15.034Z,0
2017-08-19T02:30:47.288Z,0
2017-08-19T02:31:19.530Z,0
2017-08-19T02:31:51.827Z,0
2017-08-19T02:32:24.132Z,0
2017-08-19T02:32:56.401Z,0
2017-08-19T02:33:28.667Z,0
2017-08-19T02:34:00.894Z,0
2017-08-19T02:34:33.143Z,0
2017-08-19T02:35:05.418Z,0
2017-08-19T02:35:37.693Z,0
2017-08-19T02:36:09.972Z,0
2017-08-19T02:36:42.229Z,0
2017-08-19T02:37:14.481Z,0
2017-08-19T02:37:46.748Z,0
2017-08-19T02:38:19.001Z,0
2017-08-19T02:38:51.486Z,0
2017-08-19T02:39:23.744Z,0
2017-08-19T02:39:56.002Z,0
2017-08-19T02:40:28.334Z,0
2017-08-19T02:41:00.602Z,0
2017-08-19T02:41:32.875Z,0
2017-08-19T02:42:05.127Z,0
2017-08-19T02:42:37.371Z,0
2017-08-19T02:43:09.638Z,0
2017-08-19T02:43:42.886Z,0
2017-08-19T02:44:15.126Z,0
2017-08-19T02:44:47.385Z,0
2017-08-19T02:45:19.657Z,0
2017-08-19T02:45:51.913Z,0
2017-08-19T02:46:24.190Z,0
2017-08-19T02:46:56.471Z,0
2017-08-19T02:47:28.752Z,0
2017-08-19T02:48:01.003Z,0
2017-08-19T02:48:33.235Z,0
2017-08-19T02:49:05.497Z,0
2017-08-19T02:49:37.757Z,0
2017-08-19T02:50:10.031Z,0
2017-08-19T02:50:42.906Z,0
2017-08-19T02:51:15.176Z,0
2017-08-19T02:51:47.437Z,0
2017-08-19T02:52:19.703Z,0
2017-08-19T02:52:52.896Z,0
2017-08-19T02:53:25.163Z,0
2017-08-19T02:53:57.567Z,0
2017-08-19T02:54:29.832Z,0
2017-08-19T02:55:02.075Z,0
2017-08-19T02:55:34.502Z,0
2017-08-19T02:56:06.771Z,0
2017-08-19T02:56:39.027Z,0
2017-08-19T02:57:11.284Z,0
2017-08-19T02:57:43.580Z,0
2017-08-19T02:58:15.862Z,0
2017-08-19T02:58:48.145Z,0
2017-08-19T02:59:20.419Z,0
2017-08-19T02:59:52.682Z,0
2017-08-19T03:00:25.016Z,0
2017-08-19T03:00:57.309Z,0
2017-08-19T03:01:29.576Z,0
2017-08-19T03:02:01.838Z,0
2017-08-19T03:02:34.105Z,0
2017-08-19T03:03:06.377Z,0
2017-08-19T03:03:38.629Z,0
2017-08-19T03:04:10.896Z,0
2017-08-19T03:04:43.154Z,0
2017-08-19T03:05:15.438Z,0
2017-08-19T03:05:47.677Z,0
2017-08-19T03:06:19.961Z,0
2017-08-19T03:06:52.260Z,0
2017-08-19T03:07:24.526Z,0
2017-08-19T03:07:56.807Z,0
2017-08-19T03:08:29.088Z,0
2017-08-19T03:09:01.363Z,0
2017-08-19T03:09:33.624Z,0
2017-08-19T03:10:05.883Z,0
2017-08-19T03:10:38.162Z,0
2017-08-19T03:11:10.409Z,0
2017-08-19T03:11:42.668Z,0
2017-08-19T03:12:14.935Z,0
2017-08-19T03:12:47.186Z,0
2017-08-19T03:13:19.565Z,0
2017-08-19T03:13:51.837Z,0
2017-08-19T03:14:24.108Z,0
2017-08-19T03:14:56.395Z,0
2017-08-19T03:15:28.694Z,0
2017-08-19T03:16:00.970Z,0
2017-08-19T03:16:33.243Z,0
2017-08-19T03:17:05.554Z,0
2017-08-19T03:17:37.823Z,0
2017-08-19T03:18:10.084Z,0
2017-08-19T03:18:42.343Z,0
2017-08-19T03:19:14.601Z,0
2017-08-19T03:19:46.877Z,0
2017-08-19T03:20:19.148Z,0
2017-08-19T03:20:51.495Z,0
2017-08-19T03:21:23.845Z,0
2017-08-19T03:21:56.120Z,0
2017-08-19T03:22:28.389Z,0
2017-08-19T03:23:01.380Z,0
2017-08-19T03:23:33.654Z,0
2017-08-19T03:24:05.905Z,0
2017-08-19T03:24:38.169Z,0
2017-08-19T03:25:10.441Z,0
2017-08-19T03:25:42.736Z,0
2017-08-19T03:26:14.986Z,0
2017-08-19T03:26:47.257Z,0
2017-08-19T03:27:19.502Z,0
2017-08-19T03:27:51.779Z,0
2017-08-19T03:28:24.158Z,0
2017-08-19T03:28:56.413Z,0
2017-08-19T03:29:28.649Z,0
2017-08-19T03:30:00.916Z,0
2017-08-19T03:30:33.220Z,0
2017-08-19T03:31:05.499Z,0
2017-08-19T03:31:37.768Z,0
2017-08-19T03:32:10.051Z,0
2017-08-19T03:32:42.314Z,0
2017-08-19T03:33:14.596Z,0
2017-08-19T03:33:46.855Z,0
2017-08-19T03:34:19.143Z,0
2017-08-19T03:34:51.412Z,0
2017-08-19T03:35:23.679Z,0
2017-08-19T03:35:55.949Z,0
2017-08-19T03:36:28.239Z,0
2017-08-19T03:37:00.501Z,0
2017-08-19T03:37:32.764Z,0
2017-08-19T03:38:05.043Z,0
2017-08-19T03:38:37.303Z,0
2017-08-19T03:39:09.546Z,0
2017-08-19T03:39:41.800Z,0
2017-08-19T03:40:14.153Z,0
2017-08-19T03:40:46.410Z,0
2017-08-19T03:41:18.650Z,0
2017-08-19T03:41:50.906Z,0
2017-08-19T03:42:23.168Z,0
2017-08-19T03:42:55.420Z,0
2017-08-19T03:43:27.751Z,0
2017-08-19T03:44:00.023Z,0
2017-08-19T03:44:32.299Z,0
2017-08-19T03:45:04.571Z,0
2017-08-19T03:45:37.428Z,0
2017-08-19T03:46:09.721Z,0
2017-08-19T03:46:41.954Z,0
2017-08-19T03:47:14.189Z,0
2017-08-19T03:47:46.443Z,0
2017-08-19T03:48:18.728Z,0
2017-08-19T03:48:51.122Z,0
2017-08-19T03:49:23.385Z,0
2017-08-19T03:49:55.644Z,0
2017-08-19T03:50:27.917Z,0
2017-08-19T03:51:00.958Z,0
2017-08-19T03:51:33.218Z,0
2017-08-19T03:52:05.477Z,0
2017-08-19T03:52:37.879Z,0
2017-08-19T03:53:10.142Z,0
2017-08-19T03:53:42.411Z,0
2017-08-19T03:54:14.691Z,0
2017-08-19T03:54:46.994Z,0
2017-08-19T03:55:19.285Z,0
2017-08-19T03:55:51.544Z,0
2017-08-19T03:56:23.807Z,0
2017-08-19T03:56:56.065Z,0
2017-08-19T03:57:28.328Z,0
2017-08-19T03:58:00.586Z,0
2017-08-19T03:58:32.872Z,0
2017-08-19T03:59:05.137Z,0
2017-08-19T03:59:37.386Z,0
2017-08-19T04:00:09.665Z,0
2017-08-19T04:00:41.949Z,0
2017-08-19T04:01:14.200Z,0
2017-08-19T04:01:46.479Z,0
2017-08-19T04:02:18.752Z,0
2017-08-19T04:02:51.016Z,0
2017-08-19T04:03:23.262Z,0
2017-08-19T04:03:55.535Z,0
2017-08-19T04:04:27.805Z,0
2017-08-19T04:05:00.063Z,0
2017-08-19T04:05:32.328Z,0
2017-08-19T04:06:04.584Z,0
2017-08-19T04:06:36.992Z,0
2017-08-19T04:07:09.333Z,0
2017-08-19T04:07:41.600Z,0
2017-08-19T04:08:13.869Z,0
2017-08-19T04:08:46.147Z,0
2017-08-19T04:09:18.413Z,0
2017-08-19T04:09:50.690Z,0
2017-08-19T04:10:22.956Z,0
2017-08-19T04:10:55.203Z,0
2017-08-19T04:11:27.558Z,0
2017-08-19T04:11:59.889Z,0
2017-08-19T04:12:32.148Z,0
2017-08-19T04:13:04.419Z,0
2017-08-19T04:13:36.710Z,0
2017-08-19T04:14:09.122Z,0
2017-08-19T04:14:41.424Z,0
2017-08-19T04:15:13.675Z,0
2017-08-19T04:15:45.953Z,0
2017-08-19T04:16:18.235Z,0
2017-08-19T04:16:50.495Z,0
2017-08-19T04:17:22.755Z,0
2017-08-19T04:17:55.006Z,0
2017-08-19T04:18:27.275Z,0
2017-08-19T04:18:59.567Z,0
2017-08-19T04:19:31.833Z,0
2017-08-19T04:20:04.101Z,0
2017-08-19T04:20:36.362Z,0
2017-08-19T04:21:08.630Z,0
2017-08-19T04:21:40.882Z,0
2017-08-19T04:22:13.329Z,0
2017-08-19T04:22:45.584Z,0
2017-08-19T04:23:17.833Z,0
2017-08-19T04:23:50.088Z,0
2017-08-19T04:24:22.371Z,0
2017-08-19T04:24:54.704Z,0
2017-08-19T04:25:26.968Z,0
2017-08-19T04:25:59.246Z,5
2017-08-19T04:26:31.505Z,5
2017-08-19T04:27:03.751Z,5
2017-08-19T04:27:36.111Z,5
2017-08-19T04:28:08.387Z,5
2017-08-19T04:28:40.668Z,5
2017-08-19T04:29:12.924Z,5
2017-08-19T04:29:45.215Z,5
2017-08-19T04:30:17.460Z,5
2017-08-19T04:30:49.862Z,5
2017-08-19T04:31:22.128Z,5
2017-08-19T04:31:54.412Z,5
2017-08-19T04:32:26.666Z,5
2017-08-19T04:32:58.949Z,5
2017-08-19T04:33:31.217Z,5
2017-08-19T04:34:03.477Z,5
2017-08-19T04:34:35.720Z,5
2017-08-19T04:35:07.997Z,5
2017-08-19T04:35:40.255Z,5
2017-08-19T04:36:12.490Z,5
2017-08-19T04:36:44.745Z,5
2017-08-19T04:37:16.997Z,5
2017-08-19T04:37:49.262Z,5
2017-08-19T04:38:21.518Z,10
2017-08-19T04:38:53.784Z,10
2017-08-19T04:39:26.019Z,10
2017-08-19T04:39:58.330Z,10
2017-08-19T04:40:30.584Z,10
2017-08-19T04:41:02.837Z,10
2017-08-19T04:41:35.070Z,10
2017-08-19T04:42:07.344Z,10
2017-08-19T04:42:39.599Z,10
2017-08-19T04:43:11.883Z,10
2017-08-19T04:43:44.156Z,10
2017-08-19T04:44:16.413Z,10
2017-08-19T04:44:48.679Z,10
2017-08-19T04:45:20.920Z,10
2017-08-19T04:45:53.184Z,10
2017-08-19T04:46:25.457Z,10
2017-08-19T04:46:57.823Z,15
2017-08-19T04:47:30.063Z,15
2017-08-19T04:48:02.316Z,15
2017-08-19T04:48:34.586Z,15
2017-08-19T04:49:06.978Z,15
2017-08-19T04:49:39.268Z,15
2017-08-19T04:50:11.550Z,15
2017-08-19T04:50:43.815Z,15
2017-08-19T04:51:16.944Z,15
2017-08-19T04:51:49.346Z,15
2017-08-19T04:52:21.602Z,15
2017-08-19T04:52:53.848Z,15
2017-08-19T04:53:26.080Z,15
2017-08-19T04:53:58.350Z,15
2017-08-19T04:54:30.776Z,15
2017-08-19T04:55:03.049Z,20
2017-08-19T04:55:35.293Z,20
2017-08-19T04:56:07.550Z,20
2017-08-19T04:56:39.825Z,20
2017-08-19T04:57:12.250Z,20
2017-08-19T04:57:44.511Z,20
2017-08-19T04:58:16.785Z,20
2017-08-19T04:58:49.037Z,25
2017-08-19T04:59:21.334Z,25
2017-08-19T04:59:53.669Z,25
2017-08-19T05:00:25.936Z,25
2017-08-19T05:00:58.205Z,25
2017-08-19T05:01:30.436Z,25
2017-08-19T05:02:02.709Z,25
2017-08-19T05:02:35.037Z,25
2017-08-19T05:03:07.306Z,25
2017-08-19T05:03:39.560Z,25
2017-08-19T05:04:11.821Z,25
2017-08-19T05:04:44.098Z,25
2017-08-19T05:05:16.383Z,25
2017-08-19T05:05:48.653Z,25
2017-08-19T05:06:20.902Z,25
2017-08-19T05:06:53.158Z,30
2017-08-19T05:07:25.403Z,30
2017-08-19T05:07:57.703Z,25
2017-08-19T05:08:29.967Z,25
2017-08-19T05:09:02.258Z,30
2017-08-19T05:09:34.512Z,30
2017-08-19T05:10:06.767Z,25
2017-08-19T05:10:39.042Z,30
2017-08-19T05:11:11.287Z,30
2017-08-19T05:11:43.595Z,30
2017-08-19T05:12:15.878Z,35
2017-08-19T05:12:48.130Z,35
2017-08-19T05:13:20.398Z,35
2017-08-19T05:13:52.718Z,30
2017-08-19T05:14:25.055Z,30
2017-08-19T05:14:57.316Z,30
2017-08-19T05:15:29.593Z,30
2017-08-19T05:16:01.856Z,30
2017-08-19T05:16:34.134Z,30
2017-08-19T05:17:06.406Z,30
2017-08-19T05:17:38.668Z,35
2017-08-19T05:18:10.915Z,35
2017-08-19T05:18:43.163Z,35
2017-08-19T05:19:15.400Z,40
2017-08-19T05:19:48.365Z,40
2017-08-19T05:20:20.617Z,40
2017-08-19T05:20:52.888Z,35
2017-08-19T05:21:25.136Z,30
2017-08-19T05:21:57.418Z,30
2017-08-19T05:22:29.679Z,35
2017-08-19T05:23:01.953Z,30
2017-08-19T05:23:34.226Z,35
2017-08-19T05:24:06.499Z,30
2017-08-19T05:24:38.771Z,30
2017-08-19T05:25:11.903Z,40
2017-08-19T05:25:44.249Z,45
2017-08-19T05:26:16.554Z,50
2017-08-19T05:26:48.831Z,45
2017-08-19T05:27:21.085Z,45
2017-08-19T05:27:53.330Z,45
2017-08-19T05:28:25.581Z,40
2017-08-19T05:28:57.847Z,35
2017-08-19T05:29:30.160Z,55
2017-08-19T05:30:02.422Z,45
2017-08-19T05:30:34.670Z,45
2017-08-19T05:31:06.933Z,55
2017-08-19T05:31:39.205Z,45
2017-08-19T05:32:11.484Z,35
2017-08-19T05:32:43.783Z,50
2017-08-19T05:33:16.061Z,35
2017-08-19T05:33:48.319Z,55
2017-08-19T05:34:20.697Z,55
2017-08-19T05:34:52.958Z,50
2017-08-19T05:35:25.241Z,45
2017-08-19T05:35:57.492Z,40
2017-08-19T05:36:29.752Z,50
2017-08-19T05:37:02.007Z,50
2017-08-19T05:37:34.265Z,55
2017-08-19T05:38:06.543Z,50
2017-08-19T05:38:38.803Z,40
2017-08-19T05:39:11.076Z,45
2017-08-19T05:39:43.348Z,35
2017-08-19T05:40:15.619Z,70
2017-08-19T05:40:47.871Z,70
2017-08-19T05:41:20.211Z,70
2017-08-19T05:41:52.486Z,70
2017-08-19T05:42:24.762Z,60
2017-08-19T05:42:57.021Z,40
2017-08-19T05:43:29.281Z,40
2017-08-19T05:44:01.566Z,55
2017-08-19T05:44:33.826Z,55
2017-08-19T05:45:06.108Z,55
2017-08-19T05:45:38.352Z,65
2017-08-19T05:46:10.590Z,65
2017-08-19T05:46:42.849Z,45
2017-08-19T05:47:15.226Z,55
2017-08-19T05:47:47.468Z,55
2017-08-19T05:48:19.724Z,40
2017-08-19T05:48:51.989Z,75
2017-08-19T05:49:24.263Z,80
2017-08-19T05:49:56.529Z,85
2017-08-19T05:50:28.775Z,80
2017-08-19T05:51:01.051Z,85
2017-08-19T05:51:33.330Z,80
2017-08-19T05:52:05.577Z,85
2017-08-19T05:52:38.474Z,85
2017-08-19T05:53:10.754Z,75
2017-08-19T05:53:43.023Z,55
2017-08-19T05:54:15.279Z,90
2017-08-19T05:54:47.587Z,85
2017-08-19T05:55:19.867Z,70
2017-08-19T05:55:52.100Z,90
2017-08-19T05:56:24.344Z,85
2017-08-19T05:56:56.601Z,75
2017-08-19T05:57:28.866Z,45
2017-08-19T05:58:01.176Z,75
2017-08-19T05:58:33.443Z,90
2017-08-19T05:59:05.703Z,90
2017-08-19T05:59:37.965Z,55
2017-08-19T06:00:10.221Z,80
2017-08-19T06:00:42.481Z,45
2017-08-19T06:01:14.774Z,90
2017-08-19T06:01:47.031Z,95
2017-08-19T06:02:19.346Z,90
2017-08-19T06:02:51.608Z,95
2017-08-19T06:03:23.856Z,85
2017-08-19T06:03:56.120Z,45
2017-08-19T06:04:28.365Z,75
2017-08-19T06:05:00.648Z,95
2017-08-19T06:05:32.922Z,85
2017-08-19T06:06:05.158Z,95
2017-08-19T06:06:37.430Z,70
2017-08-19T06:07:09.693Z,100
2017-08-19T06:07:42.085Z,100
2017-08-19T06:08:14.348Z,90
2017-08-19T06:08:46.626Z,50
2017-08-19T06:09:18.890Z,45
2017-08-19T06:09:51.182Z,90
2017-08-19T06:10:23.435Z,85
2017-08-19T06:10:55.697Z,85
2017-08-19T06:11:27.951Z,100
2017-08-19T06:12:00.189Z,100
2017-08-19T06:12:32.461Z,95
2017-08-19T06:13:04.735Z,50
2017-08-19T06:13:36.996Z,100
2017-08-19T06:14:09.288Z,105
2017-08-19T06:14:41.575Z,70
2017-08-19T06:15:13.857Z,100
2017-08-19T06:15:46.139Z,100
2017-08-19T06:16:18.424Z,100
2017-08-19T06:16:50.706Z,100
2017-08-19T06:17:23.013Z,100
2017-08-19T06:17:55.282Z,105
2017-08-19T06:18:27.566Z,105
2017-08-19T06:18:59.853Z,105
2017-08-19T06:19:32.156Z,105
2017-08-19T06:20:04.474Z,105
2017-08-19T06:20:36.789Z,85
2017-08-19T06:21:09.082Z,60
2017-08-19T06:21:41.386Z,105
2017-08-19T06:22:13.674Z,105
2017-08-19T06:22:45.975Z,110
2017-08-19T06:23:18.380Z,110
2017-08-19T06:23:50.630Z,60
2017-08-19T06:24:22.880Z,50
2017-08-19T06:24:55.147Z,100
2017-08-19T06:25:27.393Z,105
2017-08-19T06:25:59.679Z,105
2017-08-19T06:26:31.923Z,100
2017-08-19T06:27:04.205Z,105
2017-08-19T06:27:36.481Z,105
2017-08-19T06:28:08.759Z,110
2017-08-19T06:28:41.020Z,75
2017-08-19T06:29:13.280Z,65
2017-08-19T06:29:45.568Z,80
2017-08-19T06:30:17.798Z,110
2017-08-19T06:30:50.086Z,105
2017-08-19T06:31:22.346Z,105
2017-08-19T06:31:54.672Z,110
2017-08-19T06:32:26.933Z,115
2017-08-19T06:32:59.241Z,120
2017-08-19T06:33:31.496Z,120
2017-08-19T06:34:03.749Z,120
2017-08-19T06:34:35.990Z,115
2017-08-19T06:35:08.988Z,120
2017-08-19T06:35:41.243Z,120
2017-08-19T06:36:13.494Z,115
2017-08-19T06:36:45.798Z,110
2017-08-19T06:37:18.090Z,120
2017-08-19T06:37:50.367Z,120
2017-08-19T06:38:22.635Z,115
2017-08-19T06:38:54.963Z,100
2017-08-19T06:39:27.223Z,55
2017-08-19T06:39:59.496Z,60
2017-08-19T06:40:31.828Z,60
2017-08-19T06:41:04.082Z,125
2017-08-19T06:41:36.354Z,125
2017-08-19T06:42:08.646Z,120
2017-08-19T06:42:40.923Z,85
2017-08-19T06:43:13.194Z,115
2017-08-19T06:43:45.470Z,125
2017-08-19T06:44:17.756Z,125
2017-08-19T06:44:50.022Z,115
2017-08-19T06:45:22.306Z,95
2017-08-19T06:45:54.601Z,60
2017-08-19T06:46:26.897Z,60
2017-08-19T06:46:59.181Z,55
2017-08-19T06:47:31.481Z,125
2017-08-19T06:48:03.787Z,125
2017-08-19T06:48:36.090Z,100
2017-08-19T06:49:08.378Z,60
2017-08-19T06:49:40.685Z,125
2017-08-19T06:50:12.955Z,130
2017-08-19T06:50:45.267Z,110
2017-08-19T06:51:17.569Z,90
2017-08-19T06:51:49.859Z,55
2017-08-19T06:52:22.155Z,65
2017-08-19T06:52:54.446Z,110
2017-08-19T06:53:26.732Z,140
2017-08-19T06:53:59.025Z,145
2017-08-19T06:54:31.310Z,140
2017-08-19T06:55:03.614Z,135
2017-08-19T06:55:35.908Z,135
2017-08-19T06:56:08.215Z,125
2017-08-19T06:56:40.516Z,120
2017-08-19T06:57:12.827Z,70
2017-08-19T06:57:45.117Z,75
2017-08-19T06:58:17.395Z,105
2017-08-19T06:58:49.690Z,100
2017-08-19T06:59:21.978Z,155
2017-08-19T06:59:54.272Z,125
2017-08-19T07:00:26.565Z,160
2017-08-19T07:00:58.848Z,160
2017-08-19T07:01:31.144Z,160
2017-08-19T07:02:03.453Z,105
2017-08-19T07:02:35.742Z,80
2017-08-19T07:03:08.044Z,85
2017-08-19T07:03:40.333Z,90
2017-08-19T07:04:12.627Z,110
2017-08-19T07:04:44.924Z,150
2017-08-19T07:05:17.219Z,100
2017-08-19T07:05:49.529Z,110
2017-08-19T07:06:21.828Z,95
2017-08-19T07:06:54.104Z,85
2017-08-19T07:07:26.401Z,90
2017-08-19T07:07:58.696Z,85
2017-08-19T07:08:30.975Z,80
2017-08-19T07:09:03.282Z,70
2017-08-19T07:09:35.564Z,60
2017-08-19T07:10:07.851Z,60
2017-08-19T07:10:40.142Z,55
2017-08-19T07:11:12.435Z,55
2017-08-19T07:11:44.733Z,55
2017-08-19T07:12:17.045Z,50
2017-08-19T07:12:49.337Z,50
2017-08-19T07:13:21.636Z,50
2017-08-19T07:13:53.943Z,55
2017-08-19T07:14:26.233Z,60
2017-08-19T07:14:58.563Z,75
2017-08-19T07:15:30.850Z,115
2017-08-19T07:16:03.186Z,160
2017-08-19T07:16:35.489Z,160
2017-08-19T07:17:07.776Z,150
2017-08-19T07:17:40.082Z,95
2017-08-19T07:18:12.357Z,135
2017-08-19T07:18:44.656Z,135
2017-08-19T07:19:16.932Z,140
2017-08-19T07:19:49.226Z,95
2017-08-19T07:20:21.541Z,105
2017-08-19T07:20:53.823Z,105
2017-08-19T07:21:26.115Z,95
2017-08-19T07:21:58.413Z,95
2017-08-19T07:22:30.693Z,90
2017-08-19T07:23:02.962Z,85
2017-08-19T07:23:35.213Z,85
2017-08-19T07:24:07.496Z,85
2017-08-19T07:24:39.765Z,85
2017-08-19T07:25:12.015Z,85
2017-08-19T07:25:44.290Z,75
2017-08-19T07:26:16.558Z,60
2017-08-19T07:26:48.809Z,50
2017-08-19T07:27:21.082Z,50
2017-08-19T07:27:53.325Z,55
2017-08-19T07:28:25.563Z,70
2017-08-19T07:28:57.839Z,80
2017-08-19T07:29:30.082Z,75
2017-08-19T07:30:02.374Z,70
2017-08-19T07:30:34.645Z,70
2017-08-19T07:31:06.894Z,120
2017-08-19T07:31:39.144Z,80
2017-08-19T07:32:11.445Z,80
2017-08-19T07:32:43.720Z,90
2017-08-19T07:33:16.007Z,105
2017-08-19T07:33:48.296Z,120
2017-08-19T07:34:20.574Z,130
2017-08-19T07:34:52.854Z,125
2017-08-19T07:35:25.136Z,95
2017-08-19T07:35:57.440Z,75
2017-08-19T07:36:29.747Z,80
2017-08-19T07:37:02.062Z,90
2017-08-19T07:37:34.350Z,95
2017-08-19T07:38:06.661Z,95
2017-08-19T07:38:38.946Z,105
2017-08-19T07:39:11.232Z,110
2017-08-19T07:39:43.539Z,115
2017-08-19T07:40:15.821Z,120
2017-08-19T07:40:48.129Z,125
2017-08-19T07:41:20.424Z,130
2017-08-19T07:41:52.702Z,135
2017-08-19T07:42:24.986Z,130
2017-08-19T07:42:57.366Z,125
2017-08-19T07:43:29.668Z,95
2017-08-19T07:44:01.934Z,85
2017-08-19T07:44:34.203Z,75
2017-08-19T07:45:07.525Z,65
2017-08-19T07:45:39.784Z,65
2017-08-19T07:46:12.064Z,70
2017-08-19T07:46:44.328Z,65
2017-08-19T07:47:16.591Z,55
2017-08-19T07:47:48.849Z,50
2017-08-19T07:48:21.169Z,40